sensor_id;sensor_type;location;lat;lon;timestamp;temperature;humidity
25154;DHT22;47555;51.038;6.280;2022-12-18T00:00:40;-5.60;99.90
25154;DHT22;47555;51.038;6.280;2022-12-18T00:03:06;-5.50;99.90
25154;DHT22;47555;51.038;6.280;2022-12-18T00:05:31;-5.50;99.90
25154;DHT22;47555;51.038;6.280;2022-12-18T00:07:57;-5.50;99.90
25154;DHT22;47555;51.038;6.280;2022-12-18T00:10:22;-5.50;99.90
25154;DHT22;47555;51.038;6.280;2022-12-18T00:12:48;-5.50;99.90
25154;DHT22;47555;51.038;6.280;2022-12-18T00:15:13;-5.50;99.90
25154;DHT22;47555;51.038;6.280;2022-12-18T00:17:39;-5.50;99.90
25154;DHT22;47555;51.038;6.280;2022-12-18T00:20:05;-5.50;99.90
25154;DHT22;47555;51.038;6.280;2022-12-18T00:22:30;-5.50;99.90
25154;DHT22;47555;51.038;6.280;2022-12-18T00:24:56;-5.50;99.90
25154;DHT22;47555;51.038;6.280;2022-12-18T00:27:21;-5.50;99.90
25154;DHT22;47555;51.038;6.280;2022-12-18T00:29:48;-5.60;99.90
25154;DHT22;47555;51.038;6.280;2022-12-18T00:32:13;-5.60;99.90
25154;DHT22;47555;51.038;6.280;2022-12-18T00:34:39;-5.60;99.90
25154;DHT22;47555;51.038;6.280;2022-12-18T00:37:04;-5.60;99.90
25154;DHT22;47555;51.038;6.280;2022-12-18T00:39:30;-5.60;99.90
25154;DHT22;47555;51.038;6.280;2022-12-18T00:41:55;-5.60;99.90
25154;DHT22;47555;51.038;6.280;2022-12-18T00:44:39;-5.70;99.90
25154;DHT22;47555;51.038;6.280;2022-12-18T00:47:05;-5.60;99.90
25154;DHT22;47555;51.038;6.280;2022-12-18T00:49:30;-5.60;99.90
25154;DHT22;47555;51.038;6.280;2022-12-18T00:51:56;-5.60;99.90
25154;DHT22;47555;51.038;6.280;2022-12-18T00:54:22;-5.70;99.90
25154;DHT22;47555;51.038;6.280;2022-12-18T00:56:47;-5.70;99.90
25154;DHT22;47555;51.038;6.280;2022-12-18T00:59:13;-5.70;99.90
25154;DHT22;47555;51.038;6.280;2022-12-18T01:01:38;-5.70;99.90
25154;DHT22;47555;51.038;6.280;2022-12-18T01:04:05;-5.70;99.90
25154;DHT22;47555;51.038;6.280;2022-12-18T01:06:30;-5.70;99.90
25154;DHT22;47555;51.038;6.280;2022-12-18T01:08:56;-5.70;99.50
25154;DHT22;47555;51.038;6.280;2022-12-18T01:11:22;-5.60;99.50
25154;DHT22;47555;51.038;6.280;2022-12-18T01:13:48;-5.70;99.50
25154;DHT22;47555;51.038;6.280;2022-12-18T01:16:15;-5.70;99.30
25154;DHT22;47555;51.038;6.280;2022-12-18T01:18:41;-5.70;99.50
25154;DHT22;47555;51.038;6.280;2022-12-18T01:21:08;-5.60;99.40
25154;DHT22;47555;51.038;6.280;2022-12-18T01:23:34;-5.60;99.30
25154;DHT22;47555;51.038;6.280;2022-12-18T01:26:09;-5.60;99.20
25154;DHT22;47555;51.038;6.280;2022-12-18T01:28:35;-5.60;98.80
25154;DHT22;47555;51.038;6.280;2022-12-18T01:31:24;-5.60;98.50
25154;DHT22;47555;51.038;6.280;2022-12-18T01:33:51;-5.60;98.20
25154;DHT22;47555;51.038;6.280;2022-12-18T01:36:38;-5.60;98.00
25154;DHT22;47555;51.038;6.280;2022-12-18T01:39:06;-5.60;97.80
25154;DHT22;47555;51.038;6.280;2022-12-18T01:41:33;-5.50;97.60
25154;DHT22;47555;51.038;6.280;2022-12-18T01:47:43;-5.40;97.00
25154;DHT22;47555;51.038;6.280;2022-12-18T01:52:50;-5.40;96.50
25154;DHT22;47555;51.038;6.280;2022-12-18T01:55:19;-5.40;96.30
25154;DHT22;47555;51.038;6.280;2022-12-18T01:57:47;-5.40;96.50
25154;DHT22;47555;51.038;6.280;2022-12-18T02:00:16;-5.40;96.30
25154;DHT22;47555;51.038;6.280;2022-12-18T02:02:43;-5.40;96.20
25154;DHT22;47555;51.038;6.280;2022-12-18T02:05:12;-5.40;96.20
25154;DHT22;47555;51.038;6.280;2022-12-18T02:07:51;-5.40;96.40
25154;DHT22;47555;51.038;6.280;2022-12-18T02:10:43;-5.50;96.40
25154;DHT22;47555;51.038;6.280;2022-12-18T02:16:07;-5.50;96.50
25154;DHT22;47555;51.038;6.280;2022-12-18T02:18:35;-5.50;96.50
25154;DHT22;47555;51.038;6.280;2022-12-18T02:21:12;-5.50;96.50
25154;DHT22;47555;51.038;6.280;2022-12-18T02:26:38;-5.50;96.60
25154;DHT22;47555;51.038;6.280;2022-12-18T02:29:13;-5.50;96.70
25154;DHT22;47555;51.038;6.280;2022-12-18T02:31:43;-5.40;96.60
25154;DHT22;47555;51.038;6.280;2022-12-18T02:34:11;-5.40;96.60
25154;DHT22;47555;51.038;6.280;2022-12-18T02:36:40;-5.40;96.50
25154;DHT22;47555;51.038;6.280;2022-12-18T02:39:09;-5.40;96.70
25154;DHT22;47555;51.038;6.280;2022-12-18T02:41:35;-5.40;96.70
25154;DHT22;47555;51.038;6.280;2022-12-18T02:44:07;-5.50;96.50
25154;DHT22;47555;51.038;6.280;2022-12-18T02:46:37;-5.50;96.60
25154;DHT22;47555;51.038;6.280;2022-12-18T02:52:20;-5.50;96.40
25154;DHT22;47555;51.038;6.280;2022-12-18T02:55:06;-5.50;96.50
25154;DHT22;47555;51.038;6.280;2022-12-18T02:57:43;-5.50;96.50
25154;DHT22;47555;51.038;6.280;2022-12-18T03:00:14;-5.50;96.50
25154;DHT22;47555;51.038;6.280;2022-12-18T03:03:02;-5.60;96.80
25154;DHT22;47555;51.038;6.280;2022-12-18T03:05:36;-5.60;96.70
25154;DHT22;47555;51.038;6.280;2022-12-18T03:08:07;-5.60;96.60
25154;DHT22;47555;51.038;6.280;2022-12-18T03:10:38;-5.60;97.80
25154;DHT22;47555;51.038;6.280;2022-12-18T03:13:09;-5.60;96.50
25154;DHT22;47555;51.038;6.280;2022-12-18T03:15:40;-5.60;96.40
25154;DHT22;47555;51.038;6.280;2022-12-18T03:18:18;-5.70;96.70
25154;DHT22;47555;51.038;6.280;2022-12-18T03:20:46;-5.70;97.20
25154;DHT22;47555;51.038;6.280;2022-12-18T03:23:19;-5.70;97.30
25154;DHT22;47555;51.038;6.280;2022-12-18T03:25:46;-5.60;97.30
25154;DHT22;47555;51.038;6.280;2022-12-18T03:28:15;-5.60;97.30
25154;DHT22;47555;51.038;6.280;2022-12-18T03:30:43;-5.60;97.70
25154;DHT22;47555;51.038;6.280;2022-12-18T03:33:16;-5.60;97.40
25154;DHT22;47555;51.038;6.280;2022-12-18T03:35:45;-5.60;97.50
25154;DHT22;47555;51.038;6.280;2022-12-18T03:38:11;-5.50;97.50
25154;DHT22;47555;51.038;6.280;2022-12-18T03:46:08;-5.50;97.00
25154;DHT22;47555;51.038;6.280;2022-12-18T03:48:54;-5.50;96.50
25154;DHT22;47555;51.038;6.280;2022-12-18T03:51:44;-5.50;96.90
25154;DHT22;47555;51.038;6.280;2022-12-18T03:54:12;-5.40;96.60
25154;DHT22;47555;51.038;6.280;2022-12-18T03:56:48;-5.40;96.50
25154;DHT22;47555;51.038;6.280;2022-12-18T03:59:17;-5.50;96.30
25154;DHT22;47555;51.038;6.280;2022-12-18T04:01:47;-5.50;96.50
25154;DHT22;47555;51.038;6.280;2022-12-18T04:04:14;-5.50;96.50
25154;DHT22;47555;51.038;6.280;2022-12-18T04:06:41;-5.40;96.50
25154;DHT22;47555;51.038;6.280;2022-12-18T04:09:08;-5.40;96.30
25154;DHT22;47555;51.038;6.280;2022-12-18T04:11:35;-5.40;96.40
25154;DHT22;47555;51.038;6.280;2022-12-18T04:14:00;-5.40;96.50
25154;DHT22;47555;51.038;6.280;2022-12-18T04:16:27;-5.40;96.20
25154;DHT22;47555;51.038;6.280;2022-12-18T04:18:53;-5.40;95.80
25154;DHT22;47555;51.038;6.280;2022-12-18T04:21:19;-5.40;96.00
25154;DHT22;47555;51.038;6.280;2022-12-18T04:23:45;-5.40;95.70
25154;DHT22;47555;51.038;6.280;2022-12-18T04:26:10;-5.40;95.70
25154;DHT22;47555;51.038;6.280;2022-12-18T04:28:37;-5.40;95.90
25154;DHT22;47555;51.038;6.280;2022-12-18T04:31:02;-5.40;95.90
25154;DHT22;47555;51.038;6.280;2022-12-18T04:33:28;-5.40;96.50
25154;DHT22;47555;51.038;6.280;2022-12-18T04:35:53;-5.40;96.00
25154;DHT22;47555;51.038;6.280;2022-12-18T04:38:19;-5.20;96.30
25154;DHT22;47555;51.038;6.280;2022-12-18T04:40:44;-5.30;95.90
25154;DHT22;47555;51.038;6.280;2022-12-18T04:43:10;-5.30;95.40
25154;DHT22;47555;51.038;6.280;2022-12-18T04:45:36;-5.30;95.40
25154;DHT22;47555;51.038;6.280;2022-12-18T04:48:02;-5.30;95.30
25154;DHT22;47555;51.038;6.280;2022-12-18T04:50:28;-5.30;95.30
25154;DHT22;47555;51.038;6.280;2022-12-18T04:52:55;-5.30;95.30
25154;DHT22;47555;51.038;6.280;2022-12-18T04:55:21;-5.30;95.00
25154;DHT22;47555;51.038;6.280;2022-12-18T04:57:46;-5.30;95.00
25154;DHT22;47555;51.038;6.280;2022-12-18T05:00:12;-5.30;95.80
25154;DHT22;47555;51.038;6.280;2022-12-18T05:02:38;-5.30;95.10
25154;DHT22;47555;51.038;6.280;2022-12-18T05:05:04;-5.30;95.20
25154;DHT22;47555;51.038;6.280;2022-12-18T05:07:30;-5.30;95.20
25154;DHT22;47555;51.038;6.280;2022-12-18T05:09:55;-5.30;95.10
25154;DHT22;47555;51.038;6.280;2022-12-18T05:12:24;-5.30;95.00
25154;DHT22;47555;51.038;6.280;2022-12-18T05:14:50;-5.30;94.80
25154;DHT22;47555;51.038;6.280;2022-12-18T05:17:15;-5.30;94.80
25154;DHT22;47555;51.038;6.280;2022-12-18T05:19:41;-5.30;94.70
25154;DHT22;47555;51.038;6.280;2022-12-18T05:22:10;-5.30;94.80
25154;DHT22;47555;51.038;6.280;2022-12-18T05:24:35;-5.30;94.60
25154;DHT22;47555;51.038;6.280;2022-12-18T05:27:01;-5.30;94.90
25154;DHT22;47555;51.038;6.280;2022-12-18T05:29:27;-5.30;95.00
25154;DHT22;47555;51.038;6.280;2022-12-18T05:31:52;-5.30;94.80
25154;DHT22;47555;51.038;6.280;2022-12-18T05:34:18;-5.30;94.60
25154;DHT22;47555;51.038;6.280;2022-12-18T05:36:43;-5.30;94.50
25154;DHT22;47555;51.038;6.280;2022-12-18T05:39:09;-5.60;94.50
25154;DHT22;47555;51.038;6.280;2022-12-18T05:41:35;-5.30;94.90
25154;DHT22;47555;51.038;6.280;2022-12-18T05:44:00;-5.40;94.70
25154;DHT22;47555;51.038;6.280;2022-12-18T05:46:26;-5.40;94.80
25154;DHT22;47555;51.038;6.280;2022-12-18T05:48:51;-5.40;95.00
25154;DHT22;47555;51.038;6.280;2022-12-18T05:51:19;-5.40;95.10
25154;DHT22;47555;51.038;6.280;2022-12-18T05:53:46;-5.40;95.10
25154;DHT22;47555;51.038;6.280;2022-12-18T05:56:14;-5.30;95.10
25154;DHT22;47555;51.038;6.280;2022-12-18T05:58:40;-5.30;94.90
25154;DHT22;47555;51.038;6.280;2022-12-18T06:01:25;-5.30;94.40
25154;DHT22;47555;51.038;6.280;2022-12-18T06:03:51;-5.30;94.50
25154;DHT22;47555;51.038;6.280;2022-12-18T06:06:22;-5.30;94.60
25154;DHT22;47555;51.038;6.280;2022-12-18T06:08:48;-5.30;95.00
25154;DHT22;47555;51.038;6.280;2022-12-18T06:11:19;-5.30;94.80
25154;DHT22;47555;51.038;6.280;2022-12-18T06:13:46;-5.20;94.70
25154;DHT22;47555;51.038;6.280;2022-12-18T06:16:12;-5.20;94.40
25154;DHT22;47555;51.038;6.280;2022-12-18T06:18:37;-5.20;94.40
25154;DHT22;47555;51.038;6.280;2022-12-18T06:21:03;-5.20;94.00
25154;DHT22;47555;51.038;6.280;2022-12-18T06:23:29;-5.20;93.80
25154;DHT22;47555;51.038;6.280;2022-12-18T06:25:54;-5.20;93.80
25154;DHT22;47555;51.038;6.280;2022-12-18T06:28:20;-5.20;93.80
25154;DHT22;47555;51.038;6.280;2022-12-18T06:30:47;-5.20;93.70
25154;DHT22;47555;51.038;6.280;2022-12-18T06:33:13;-5.20;93.70
25154;DHT22;47555;51.038;6.280;2022-12-18T06:35:39;-5.10;93.60
25154;DHT22;47555;51.038;6.280;2022-12-18T06:38:05;-5.20;93.40
25154;DHT22;47555;51.038;6.280;2022-12-18T06:40:30;-5.20;93.50
25154;DHT22;47555;51.038;6.280;2022-12-18T06:42:56;-5.20;93.30
25154;DHT22;47555;51.038;6.280;2022-12-18T06:45:21;-5.20;93.40
25154;DHT22;47555;51.038;6.280;2022-12-18T06:47:47;-5.20;93.40
25154;DHT22;47555;51.038;6.280;2022-12-18T06:50:13;-5.10;93.50
25154;DHT22;47555;51.038;6.280;2022-12-18T06:52:39;-5.20;93.60
25154;DHT22;47555;51.038;6.280;2022-12-18T06:55:09;-5.20;93.20
25154;DHT22;47555;51.038;6.280;2022-12-18T06:57:34;-5.20;93.40
25154;DHT22;47555;51.038;6.280;2022-12-18T07:00:00;-5.30;93.70
25154;DHT22;47555;51.038;6.280;2022-12-18T07:02:25;-5.30;93.70
25154;DHT22;47555;51.038;6.280;2022-12-18T07:04:51;-5.30;93.60
25154;DHT22;47555;51.038;6.280;2022-12-18T07:07:17;-5.30;93.90
25154;DHT22;47555;51.038;6.280;2022-12-18T07:09:43;-5.30;94.20
25154;DHT22;47555;51.038;6.280;2022-12-18T07:12:09;-5.30;94.00
25154;DHT22;47555;51.038;6.280;2022-12-18T07:14:34;-5.20;94.00
25154;DHT22;47555;51.038;6.280;2022-12-18T07:17:00;-5.30;93.80
25154;DHT22;47555;51.038;6.280;2022-12-18T07:19:25;-5.20;93.80
25154;DHT22;47555;51.038;6.280;2022-12-18T07:21:51;-5.30;93.90
25154;DHT22;47555;51.038;6.280;2022-12-18T07:24:17;-5.20;93.60
25154;DHT22;47555;51.038;6.280;2022-12-18T07:26:45;-5.20;93.90
25154;DHT22;47555;51.038;6.280;2022-12-18T07:29:10;-5.20;93.90
25154;DHT22;47555;51.038;6.280;2022-12-18T07:31:36;-5.30;94.00
25154;DHT22;47555;51.038;6.280;2022-12-18T07:34:02;-5.30;94.10
25154;DHT22;47555;51.038;6.280;2022-12-18T07:36:27;-5.10;94.40
25154;DHT22;47555;51.038;6.280;2022-12-18T07:38:53;-5.30;94.40
25154;DHT22;47555;51.038;6.280;2022-12-18T07:41:18;-5.30;94.50
25154;DHT22;47555;51.038;6.280;2022-12-18T07:43:44;-5.30;94.50
25154;DHT22;47555;51.038;6.280;2022-12-18T07:46:11;-5.30;94.40
25154;DHT22;47555;51.038;6.280;2022-12-18T07:48:39;-5.20;94.30
25154;DHT22;47555;51.038;6.280;2022-12-18T07:51:06;-5.20;94.30
25154;DHT22;47555;51.038;6.280;2022-12-18T07:53:33;-5.20;94.30
25154;DHT22;47555;51.038;6.280;2022-12-18T07:56:00;-5.20;94.50
25154;DHT22;47555;51.038;6.280;2022-12-18T07:58:27;-5.20;94.20
25154;DHT22;47555;51.038;6.280;2022-12-18T08:00:53;-5.10;94.30
25154;DHT22;47555;51.038;6.280;2022-12-18T08:03:19;-5.10;94.10
25154;DHT22;47555;51.038;6.280;2022-12-18T08:05:44;-5.00;93.90
25154;DHT22;47555;51.038;6.280;2022-12-18T08:08:10;-5.00;93.30
25154;DHT22;47555;51.038;6.280;2022-12-18T08:10:37;-4.90;93.10
25154;DHT22;47555;51.038;6.280;2022-12-18T08:13:03;-4.80;93.50
25154;DHT22;47555;51.038;6.280;2022-12-18T08:15:28;-4.70;92.50
25154;DHT22;47555;51.038;6.280;2022-12-18T08:17:56;-4.70;92.00
25154;DHT22;47555;51.038;6.280;2022-12-18T08:20:22;-4.60;91.30
25154;DHT22;47555;51.038;6.280;2022-12-18T08:22:48;-4.50;91.10
25154;DHT22;47555;51.038;6.280;2022-12-18T08:25:13;-4.50;90.60
25154;DHT22;47555;51.038;6.280;2022-12-18T08:27:39;-4.40;90.10
25154;DHT22;47555;51.038;6.280;2022-12-18T08:30:05;-4.30;89.90
25154;DHT22;47555;51.038;6.280;2022-12-18T08:32:31;-4.30;89.20
25154;DHT22;47555;51.038;6.280;2022-12-18T08:34:58;-4.20;88.80
25154;DHT22;47555;51.038;6.280;2022-12-18T08:37:24;-4.20;89.50
25154;DHT22;47555;51.038;6.280;2022-12-18T08:39:52;-4.10;88.50
25154;DHT22;47555;51.038;6.280;2022-12-18T08:42:17;-4.10;88.40
25154;DHT22;47555;51.038;6.280;2022-12-18T08:45:02;-4.00;88.00
25154;DHT22;47555;51.038;6.280;2022-12-18T08:47:28;-3.80;87.50
25154;DHT22;47555;51.038;6.280;2022-12-18T08:49:54;-3.70;86.80
25154;DHT22;47555;51.038;6.280;2022-12-18T08:52:19;-3.60;86.20
25154;DHT22;47555;51.038;6.280;2022-12-18T08:54:45;-3.50;85.80
25154;DHT22;47555;51.038;6.280;2022-12-18T08:57:10;-3.40;85.00
25154;DHT22;47555;51.038;6.280;2022-12-18T08:59:36;-3.30;84.30
25154;DHT22;47555;51.038;6.280;2022-12-18T09:02:01;-3.30;84.10
25154;DHT22;47555;51.038;6.280;2022-12-18T09:04:27;-3.30;83.90
25154;DHT22;47555;51.038;6.280;2022-12-18T09:06:55;-3.30;84.00
25154;DHT22;47555;51.038;6.280;2022-12-18T09:09:21;-3.30;84.50
25154;DHT22;47555;51.038;6.280;2022-12-18T09:11:47;-3.30;84.30
25154;DHT22;47555;51.038;6.280;2022-12-18T09:14:12;-3.20;83.80
25154;DHT22;47555;51.038;6.280;2022-12-18T09:16:38;-3.00;83.70
25154;DHT22;47555;51.038;6.280;2022-12-18T09:19:04;-2.70;81.50
25154;DHT22;47555;51.038;6.280;2022-12-18T09:21:32;-2.50;79.60
25154;DHT22;47555;51.038;6.280;2022-12-18T09:23:58;-2.30;78.90
25154;DHT22;47555;51.038;6.280;2022-12-18T09:26:25;-2.20;76.60
25154;DHT22;47555;51.038;6.280;2022-12-18T09:28:51;-2.30;76.90
25154;DHT22;47555;51.038;6.280;2022-12-18T09:31:19;-2.30;77.80
25154;DHT22;47555;51.038;6.280;2022-12-18T09:33:45;-2.40;78.60
25154;DHT22;47555;51.038;6.280;2022-12-18T09:36:13;-2.40;79.20
25154;DHT22;47555;51.038;6.280;2022-12-18T09:38:39;-2.40;79.80
25154;DHT22;47555;51.038;6.280;2022-12-18T09:46:43;-2.40;80.20
25154;DHT22;47555;51.038;6.280;2022-12-18T09:49:18;-2.40;80.50
25154;DHT22;47555;51.038;6.280;2022-12-18T09:51:49;-2.40;81.00
25154;DHT22;47555;51.038;6.280;2022-12-18T09:54:23;-2.40;81.20
25154;DHT22;47555;51.038;6.280;2022-12-18T09:56:51;-2.40;81.90
25154;DHT22;47555;51.038;6.280;2022-12-18T10:01:45;-2.20;81.00
25154;DHT22;47555;51.038;6.280;2022-12-18T10:04:11;-2.20;81.30
25154;DHT22;47555;51.038;6.280;2022-12-18T10:09:28;-2.00;80.40
25154;DHT22;47555;51.038;6.280;2022-12-18T10:12:06;-1.80;78.30
25154;DHT22;47555;51.038;6.280;2022-12-18T10:15:00;-1.70;79.50
25154;DHT22;47555;51.038;6.280;2022-12-18T10:21:00;-1.50;77.80
25154;DHT22;47555;51.038;6.280;2022-12-18T10:26:36;-1.30;77.10
25154;DHT22;47555;51.038;6.280;2022-12-18T10:29:14;-1.30;76.90
25154;DHT22;47555;51.038;6.280;2022-12-18T10:31:40;-1.30;76.20
25154;DHT22;47555;51.038;6.280;2022-12-18T10:34:15;-1.30;76.50
25154;DHT22;47555;51.038;6.280;2022-12-18T10:36:40;-1.40;76.50
25154;DHT22;47555;51.038;6.280;2022-12-18T10:41:41;-1.50;78.30
25154;DHT22;47555;51.038;6.280;2022-12-18T10:44:21;-1.50;79.60
25154;DHT22;47555;51.038;6.280;2022-12-18T10:47:02;-1.50;78.60
25154;DHT22;47555;51.038;6.280;2022-12-18T10:49:32;-1.50;78.80
25154;DHT22;47555;51.038;6.280;2022-12-18T10:57:16;-1.50;78.60
25154;DHT22;47555;51.038;6.280;2022-12-18T10:59:53;-1.50;79.00
25154;DHT22;47555;51.038;6.280;2022-12-18T11:02:35;-1.50;79.50
25154;DHT22;47555;51.038;6.280;2022-12-18T11:05:02;-1.50;78.60
25154;DHT22;47555;51.038;6.280;2022-12-18T11:07:48;-1.50;79.60
25154;DHT22;47555;51.038;6.280;2022-12-18T11:10:17;-1.50;79.60
25154;DHT22;47555;51.038;6.280;2022-12-18T11:12:43;-1.50;80.80
25154;DHT22;47555;51.038;6.280;2022-12-18T11:15:27;-1.50;80.30
25154;DHT22;47555;51.038;6.280;2022-12-18T11:17:54;-1.40;80.20
25154;DHT22;47555;51.038;6.280;2022-12-18T11:23:12;-1.40;80.10
25154;DHT22;47555;51.038;6.280;2022-12-18T11:25:39;-1.40;80.20
25154;DHT22;47555;51.038;6.280;2022-12-18T11:31:09;-1.30;80.60
25154;DHT22;47555;51.038;6.280;2022-12-18T11:33:38;-1.30;81.60
25154;DHT22;47555;51.038;6.280;2022-12-18T11:36:07;-1.30;81.70
25154;DHT22;47555;51.038;6.280;2022-12-18T11:38:39;-1.30;81.50
25154;DHT22;47555;51.038;6.280;2022-12-18T11:44:05;-1.30;80.90
25154;DHT22;47555;51.038;6.280;2022-12-18T11:46:37;-1.30;80.80
25154;DHT22;47555;51.038;6.280;2022-12-18T11:49:07;-1.20;81.10
25154;DHT22;47555;51.038;6.280;2022-12-18T11:51:42;-1.20;81.00
25154;DHT22;47555;51.038;6.280;2022-12-18T11:54:13;-1.10;80.90
25154;DHT22;47555;51.038;6.280;2022-12-18T11:57:11;-1.10;80.70
25154;DHT22;47555;51.038;6.280;2022-12-18T11:59:56;-1.10;80.30
25154;DHT22;47555;51.038;6.280;2022-12-18T12:05:33;-1.10;80.40
25154;DHT22;47555;51.038;6.280;2022-12-18T12:16:34;-1.10;80.00
25154;DHT22;47555;51.038;6.280;2022-12-18T12:21:49;-1.10;80.50
25154;DHT22;47555;51.038;6.280;2022-12-18T12:28:09;-1.10;79.80
25154;DHT22;47555;51.038;6.280;2022-12-18T12:31:13;-1.10;79.90
25154;DHT22;47555;51.038;6.280;2022-12-18T12:34:10;-1.10;80.00
25154;DHT22;47555;51.038;6.280;2022-12-18T12:36:45;-1.10;80.60
25154;DHT22;47555;51.038;6.280;2022-12-18T12:39:19;-1.00;81.00
25154;DHT22;47555;51.038;6.280;2022-12-18T12:41:47;-1.00;80.60
25154;DHT22;47555;51.038;6.280;2022-12-18T12:44:38;-0.90;81.00
25154;DHT22;47555;51.038;6.280;2022-12-18T12:47:17;-1.00;79.60
25154;DHT22;47555;51.038;6.280;2022-12-18T12:49:45;-0.90;79.70
25154;DHT22;47555;51.038;6.280;2022-12-18T12:52:17;-0.90;80.00
25154;DHT22;47555;51.038;6.280;2022-12-18T12:54:47;-0.90;78.70
25154;DHT22;47555;51.038;6.280;2022-12-18T12:57:26;-0.90;78.80
25154;DHT22;47555;51.038;6.280;2022-12-18T12:59:56;-0.80;78.90
25154;DHT22;47555;51.038;6.280;2022-12-18T13:02:44;-0.80;78.60
25154;DHT22;47555;51.038;6.280;2022-12-18T13:08:12;-0.90;78.00
25154;DHT22;47555;51.038;6.280;2022-12-18T13:10:46;-0.90;78.00
25154;DHT22;47555;51.038;6.280;2022-12-18T13:13:16;-0.90;78.60
25154;DHT22;47555;51.038;6.280;2022-12-18T13:15:46;-0.90;78.20
25154;DHT22;47555;51.038;6.280;2022-12-18T13:18:16;-0.90;79.10
25154;DHT22;47555;51.038;6.280;2022-12-18T13:23:26;-0.90;78.50
25154;DHT22;47555;51.038;6.280;2022-12-18T13:25:59;-0.90;79.30
25154;DHT22;47555;51.038;6.280;2022-12-18T13:28:51;-0.90;79.20
25154;DHT22;47555;51.038;6.280;2022-12-18T13:34:16;-0.90;77.90
25154;DHT22;47555;51.038;6.280;2022-12-18T13:36:43;-0.90;77.50
25154;DHT22;47555;51.038;6.280;2022-12-18T13:44:58;-0.90;76.10
25154;DHT22;47555;51.038;6.280;2022-12-18T13:47:34;-0.90;76.10
25154;DHT22;47555;51.038;6.280;2022-12-18T13:50:21;-0.90;77.00
25154;DHT22;47555;51.038;6.280;2022-12-18T13:52:50;-0.90;77.00
25154;DHT22;47555;51.038;6.280;2022-12-18T13:55:18;-0.90;76.40
25154;DHT22;47555;51.038;6.280;2022-12-18T13:57:45;-0.90;76.60
25154;DHT22;47555;51.038;6.280;2022-12-18T14:02:50;-1.00;77.20
25154;DHT22;47555;51.038;6.280;2022-12-18T14:05:30;-1.00;78.00
25154;DHT22;47555;51.038;6.280;2022-12-18T14:08:01;-1.00;77.20
25154;DHT22;47555;51.038;6.280;2022-12-18T14:10:32;-1.00;77.30
25154;DHT22;47555;51.038;6.280;2022-12-18T14:13:03;-1.00;78.10
25154;DHT22;47555;51.038;6.280;2022-12-18T14:15:41;-1.00;77.60
25154;DHT22;47555;51.038;6.280;2022-12-18T14:18:26;-1.00;77.80
25154;DHT22;47555;51.038;6.280;2022-12-18T14:20:57;-1.00;78.00
25154;DHT22;47555;51.038;6.280;2022-12-18T14:23:41;-1.00;77.70
25154;DHT22;47555;51.038;6.280;2022-12-18T14:26:30;-1.00;77.60
25154;DHT22;47555;51.038;6.280;2022-12-18T14:28:57;-1.10;77.60
25154;DHT22;47555;51.038;6.280;2022-12-18T14:31:26;-1.00;77.80
25154;DHT22;47555;51.038;6.280;2022-12-18T14:33:52;-1.00;77.90
25154;DHT22;47555;51.038;6.280;2022-12-18T14:36:26;-1.00;78.00
25154;DHT22;47555;51.038;6.280;2022-12-18T14:38:56;-1.00;77.80
25154;DHT22;47555;51.038;6.280;2022-12-18T14:41:22;-1.00;77.40
25154;DHT22;47555;51.038;6.280;2022-12-18T14:43:50;-1.00;77.60
25154;DHT22;47555;51.038;6.280;2022-12-18T14:48:53;-1.00;77.90
25154;DHT22;47555;51.038;6.280;2022-12-18T14:51:21;-1.00;78.00
25154;DHT22;47555;51.038;6.280;2022-12-18T14:53:49;-1.00;78.20
25154;DHT22;47555;51.038;6.280;2022-12-18T14:56:28;-1.10;78.30
25154;DHT22;47555;51.038;6.280;2022-12-18T14:58:59;-1.00;78.70
25154;DHT22;47555;51.038;6.280;2022-12-18T15:03:59;-1.00;79.00
25154;DHT22;47555;51.038;6.280;2022-12-18T15:06:38;-1.00;79.30
25154;DHT22;47555;51.038;6.280;2022-12-18T15:09:22;-1.10;79.40
25154;DHT22;47555;51.038;6.280;2022-12-18T15:11:48;-1.10;79.70
25154;DHT22;47555;51.038;6.280;2022-12-18T15:17:26;-1.10;78.80
25154;DHT22;47555;51.038;6.280;2022-12-18T15:19:53;-1.10;79.00
25154;DHT22;47555;51.038;6.280;2022-12-18T15:22:28;-1.10;79.20
25154;DHT22;47555;51.038;6.280;2022-12-18T15:24:56;-1.10;79.50
25154;DHT22;47555;51.038;6.280;2022-12-18T15:27:36;-1.10;80.00
25154;DHT22;47555;51.038;6.280;2022-12-18T15:30:17;-1.10;80.70
25154;DHT22;47555;51.038;6.280;2022-12-18T15:32:44;-1.20;81.00
25154;DHT22;47555;51.038;6.280;2022-12-18T15:35:20;-1.20;81.30
25154;DHT22;47555;51.038;6.280;2022-12-18T15:37:47;-1.20;81.50
25154;DHT22;47555;51.038;6.280;2022-12-18T15:40:14;-1.20;81.80
25154;DHT22;47555;51.038;6.280;2022-12-18T15:42:41;-1.30;82.80
25154;DHT22;47555;51.038;6.280;2022-12-18T15:45:25;-1.30;82.60
25154;DHT22;47555;51.038;6.280;2022-12-18T15:47:51;-1.30;83.00
25154;DHT22;47555;51.038;6.280;2022-12-18T15:50:16;-1.30;83.30
25154;DHT22;47555;51.038;6.280;2022-12-18T15:52:44;-1.30;83.40
25154;DHT22;47555;51.038;6.280;2022-12-18T15:55:12;-1.30;83.60
25154;DHT22;47555;51.038;6.280;2022-12-18T15:57:57;-1.20;83.30
25154;DHT22;47555;51.038;6.280;2022-12-18T16:00:22;-1.30;83.20
25154;DHT22;47555;51.038;6.280;2022-12-18T16:02:48;-1.30;83.20
25154;DHT22;47555;51.038;6.280;2022-12-18T16:05:15;-1.30;83.80
25154;DHT22;47555;51.038;6.280;2022-12-18T16:07:42;-1.30;84.30
25154;DHT22;47555;51.038;6.280;2022-12-18T16:10:08;-1.30;84.70
25154;DHT22;47555;51.038;6.280;2022-12-18T16:12:34;-1.40;84.70
25154;DHT22;47555;51.038;6.280;2022-12-18T16:15:00;-1.40;85.00
25154;DHT22;47555;51.038;6.280;2022-12-18T16:17:25;-1.30;84.50
25154;DHT22;47555;51.038;6.280;2022-12-18T16:19:51;-1.30;84.80
25154;DHT22;47555;51.038;6.280;2022-12-18T16:22:26;-1.30;84.90
25154;DHT22;47555;51.038;6.280;2022-12-18T16:24:53;-1.30;84.70
25154;DHT22;47555;51.038;6.280;2022-12-18T16:27:19;-1.30;85.00
25154;DHT22;47555;51.038;6.280;2022-12-18T16:29:45;-1.30;85.10
25154;DHT22;47555;51.038;6.280;2022-12-18T16:32:16;-1.30;85.40
25154;DHT22;47555;51.038;6.280;2022-12-18T16:34:43;-1.30;85.50
25154;DHT22;47555;51.038;6.280;2022-12-18T16:37:10;-1.30;85.50
25154;DHT22;47555;51.038;6.280;2022-12-18T16:39:37;-1.30;86.00
25154;DHT22;47555;51.038;6.280;2022-12-18T16:42:13;-1.30;86.00
25154;DHT22;47555;51.038;6.280;2022-12-18T16:44:40;-1.30;85.70
25154;DHT22;47555;51.038;6.280;2022-12-18T16:47:05;-1.30;86.10
25154;DHT22;47555;51.038;6.280;2022-12-18T16:49:31;-1.30;86.90
25154;DHT22;47555;51.038;6.280;2022-12-18T16:51:56;-1.30;86.10
25154;DHT22;47555;51.038;6.280;2022-12-18T16:54:22;-1.30;86.20
25154;DHT22;47555;51.038;6.280;2022-12-18T16:56:50;-1.30;86.40
25154;DHT22;47555;51.038;6.280;2022-12-18T16:59:15;-1.30;86.30
25154;DHT22;47555;51.038;6.280;2022-12-18T17:01:41;-1.30;86.60
25154;DHT22;47555;51.038;6.280;2022-12-18T17:04:07;-1.20;87.10
25154;DHT22;47555;51.038;6.280;2022-12-18T17:06:39;-1.30;87.10
25154;DHT22;47555;51.038;6.280;2022-12-18T17:09:07;-1.30;87.60
25154;DHT22;47555;51.038;6.280;2022-12-18T17:11:34;-1.30;87.90
25154;DHT22;47555;51.038;6.280;2022-12-18T17:14:06;-1.30;89.00
25154;DHT22;47555;51.038;6.280;2022-12-18T17:16:32;-1.30;88.30
25154;DHT22;47555;51.038;6.280;2022-12-18T17:18:58;-1.30;88.40
25154;DHT22;47555;51.038;6.280;2022-12-18T17:21:23;-1.20;88.30